Time;durP1;ratioP1;P1;durP2;ratioP2;P2;SDS_P1;SDS_P2;PMS_P1;PMS_P2;Temp;Humidity;BMP_temperature;BMP_pressure;BME280_temperature;BME280_humidity;BME280_pressure;Samples;Min_cycle;Max_cycle;Signal;HPM_P1;HPM_P2
2023/01/19 00:01:23;;;;;;;11.97;7.33;;;0.90;99.90;;;;;;5016830;28;20430;-49
2023/01/19 00:03:49;;;;;;;9.90;7.57;;;0.90;99.90;;;;;;5016851;28;20208;-49
2023/01/19 00:06:16;;;;;;;9.37;6.47;;;1.00;99.90;;;;;;5034888;28;20451;-49
2023/01/19 00:08:44;;;;;;;11.17;6.63;;;1.00;99.90;;;;;;5034562;28;20413;-50
2023/01/19 00:11:11;;;;;;;11.37;7.37;;;1.00;99.90;;;;;;5034450;28;20417;-50
2023/01/19 00:13:37;;;;;;;12.23;7.67;;;1.00;99.90;;;;;;5034421;28;20442;-51
2023/01/19 00:16:03;;;;;;;11.43;7.27;;;1.00;99.90;;;;;;5034483;28;20472;-50
2023/01/19 00:18:29;;;;;;;10.40;6.50;;;1.00;99.90;;;;;;5034357;28;20430;-49
2023/01/19 00:20:55;;;;;;;10.70;5.63;;;1.00;99.90;;;;;;5034226;28;20183;-50
2023/01/19 00:23:20;;;;;;;8.30;6.40;;;1.00;99.90;;;;;;5034293;28;20547;-48
2023/01/19 00:25:47;;;;;;;12.73;7.93;;;1.00;99.90;;;;;;5034380;28;20184;-49
2023/01/19 00:28:16;;;;;;;9.33;5.90;;;1.00;99.90;;;;;;5034759;28;20198;-50
2023/01/19 00:30:42;;;;;;;12.70;7.47;;;1.00;99.90;;;;;;5034164;28;20466;-51
2023/01/19 00:33:09;;;;;;;13.27;6.63;;;1.00;99.90;;;;;;5034937;28;20448;-49
2023/01/19 00:35:34;;;;;;;14.27;7.17;;;1.00;99.90;;;;;;5043129;28;20549;-45
2023/01/19 00:38:01;;;;;;;11.90;7.00;;;1.00;99.90;;;;;;5049932;28;20429;-43
2023/01/19 00:40:27;;;;;;;12.17;8.03;;;1.00;99.90;;;;;;5037654;28;20219;-43
2023/01/19 00:42:53;;;;;;;10.33;6.70;;;1.00;99.90;;;;;;5016310;28;20484;-43
2023/01/19 00:45:23;;;;;;;11.43;7.03;;;1.00;99.90;;;;;;5016083;28;20191;-44
2023/01/19 00:47:56;;;;;;;11.50;7.50;;;0.90;99.90;;;;;;5033993;28;20782;-43
2023/01/19 00:50:23;;;;;;;6.93;5.10;;;0.90;99.90;;;;;;5034041;28;20544;-43
2023/01/19 00:52:49;;;;;;;11.07;6.67;;;0.90;99.90;;;;;;5033631;28;20925;-44
2023/01/19 00:55:15;;;;;;;14.23;8.00;;;0.90;99.90;;;;;;5033872;28;20482;-45
2023/01/19 00:57:41;;;;;;;13.37;8.67;;;0.90;99.90;;;;;;5033323;28;20907;-43
2023/01/19 01:00:11;;;;;;;15.60;9.30;;;0.90;99.90;;;;;;5033677;28;20176;-43
2023/01/19 01:02:38;;;;;;;11.57;8.00;;;1.00;99.90;;;;;;5033266;28;20245;-45
2023/01/19 01:05:04;;;;;;;11.77;7.70;;;1.00;99.90;;;;;;5033547;28;20910;-46
2023/01/19 01:07:39;;;;;;;11.70;7.93;;;1.00;99.90;;;;;;5033469;28;20421;-44
2023/01/19 01:10:26;;;;;;;8.37;5.73;;;1.00;99.90;;;;;;5033595;28;20166;-45
2023/01/19 01:12:52;;;;;;;11.33;7.10;;;1.00;99.90;;;;;;5033514;28;20442;-43
2023/01/19 01:15:18;;;;;;;7.57;5.33;;;1.00;99.90;;;;;;5018838;28;20520;-45
2023/01/19 01:17:47;;;;;;;14.67;7.27;;;1.00;99.90;;;;;;5037475;28;20166;-45
2023/01/19 01:20:15;;;;;;;10.70;7.33;;;1.00;99.90;;;;;;5037367;28;20312;-44
2023/01/19 01:22:44;;;;;;;8.57;6.37;;;1.00;99.90;;;;;;5037265;28;20429;-43
2023/01/19 01:25:13;;;;;;;12.60;7.90;;;1.00;99.90;;;;;;5019498;28;20418;-44
2023/01/19 01:27:39;;;;;;;11.37;6.90;;;1.10;99.90;;;;;;5037126;28;20492;-46
2023/01/19 01:30:06;;;;;;;13.83;7.83;;;1.00;99.90;;;;;;5037231;28;20481;-45
2023/01/19 01:32:31;;;;;;;10.93;6.87;;;1.10;99.90;;;;;;5037095;28;20202;-44
2023/01/19 01:34:57;;;;;;;13.43;7.47;;;1.10;99.90;;;;;;5037053;28;20782;-43
2023/01/19 01:37:23;;;;;;;14.60;7.27;;;1.20;99.90;;;;;;5037571;28;20254;-46
2023/01/19 01:39:48;;;;;;;9.93;6.73;;;1.10;99.90;;;;;;5037217;28;20179;-44
2023/01/19 01:42:19;;;;;;;12.50;6.87;;;1.10;99.90;;;;;;5037554;28;20199;-44
2023/01/19 01:44:53;;;;;;;7.20;5.03;;;1.00;99.90;;;;;;5038154;28;20182;-46
2023/01/19 01:47:29;;;;;;;9.73;7.17;;;1.00;99.90;;;;;;5038142;28;20413;-43
2023/01/19 01:50:09;;;;;;;9.87;5.90;;;1.00;99.90;;;;;;5037676;28;20433;-45
2023/01/19 01:52:41;;;;;;;11.87;6.83;;;1.00;99.90;;;;;;5038322;28;20454;-43
2023/01/19 01:55:08;;;;;;;8.37;5.57;;;1.00;99.90;;;;;;5037547;28;20446;-43
2023/01/19 01:57:38;;;;;;;14.33;8.40;;;1.00;99.90;;;;;;5037261;28;20417;-43
2023/01/19 02:00:04;;;;;;;10.73;6.50;;;1.00;99.90;;;;;;5037406;28;20413;-45
2023/01/19 02:02:50;;;;;;;10.80;6.23;;;1.00;99.90;;;;;;5036862;28;20804;-44
2023/01/19 02:05:34;;;;;;;6.67;5.10;;;1.00;99.90;;;;;;5036746;28;20456;-44
2023/01/19 02:13:48;;;;;;;14.90;7.03;;;1.00;99.90;;;;;;5036958;28;20396;-45
2023/01/19 02:16:15;;;;;;;9.23;5.97;;;0.90;99.90;;;;;;5018546;28;20179;-45
2023/01/19 02:18:42;;;;;;;7.77;4.27;;;1.00;99.90;;;;;;5036811;28;20180;-45
2023/01/19 02:21:18;;;;;;;11.40;6.70;;;1.00;99.90;;;;;;5036687;28;20406;-44
2023/01/19 02:23:55;;;;;;;8.17;5.50;;;1.00;99.90;;;;;;5019126;28;20784;-47
2023/01/19 02:26:24;;;;;;;13.53;6.40;;;1.00;99.90;;;;;;5036302;28;20406;-44
2023/01/19 02:29:03;;;;;;;9.07;6.20;;;1.00;99.90;;;;;;5036446;28;20496;-44
2023/01/19 02:31:31;;;;;;;9.13;6.00;;;1.00;99.90;;;;;;5036303;28;20202;-44
2023/01/19 02:33:59;;;;;;;10.63;6.30;;;1.00;99.90;;;;;;5036335;28;20805;-44
2023/01/19 02:36:37;;;;;;;9.50;6.13;;;1.10;99.90;;;;;;5036479;28;20818;-47
2023/01/19 02:39:04;;;;;;;11.17;5.83;;;1.10;99.90;;;;;;5036035;28;20398;-44
2023/01/19 02:41:34;;;;;;;12.23;7.17;;;1.00;99.90;;;;;;5018108;28;20479;-44
2023/01/19 02:44:00;;;;;;;5.00;3.23;;;1.00;99.90;;;;;;5035803;28;20429;-44
2023/01/19 02:46:26;;;;;;;8.77;5.67;;;1.10;99.90;;;;;;5018272;28;20537;-45
2023/01/19 02:48:56;;;;;;;9.80;6.17;;;1.10;99.90;;;;;;5036107;28;20187;-44
2023/01/19 02:51:23;;;;;;;7.27;5.07;;;1.10;99.90;;;;;;5036077;28;20173;-45
2023/01/19 02:54:20;;;;;;;12.70;6.17;;;1.10;99.90;;;;;;5035884;28;20412;-44
2023/01/19 02:56:54;;;;;;;7.63;5.00;;;1.10;99.90;;;;;;5035887;28;20473;-46
2023/01/19 02:59:51;;;;;;;7.43;3.97;;;1.10;99.90;;;;;;5036618;28;20393;-45
2023/01/19 03:02:27;;;;;;;9.37;6.07;;;1.10;99.90;;;;;;5035641;28;20425;-44
2023/01/19 03:04:59;;;;;;;10.03;5.23;;;1.10;99.90;;;;;;5035987;28;20394;-45
2023/01/19 03:07:39;;;;;;;10.33;6.47;;;1.10;99.90;;;;;;5035667;28;20418;-44
2023/01/19 03:10:42;;;;;;;8.50;5.63;;;1.20;99.90;;;;;;5036161;28;20406;-43
2023/01/19 03:13:19;;;;;;;8.93;5.93;;;1.20;99.90;;;;;;5018290;28;20436;-44
2023/01/19 03:16:10;;;;;;;11.47;6.97;;;1.20;99.90;;;;;;5017819;28;20453;-44
2023/01/19 03:18:38;;;;;;;9.43;5.50;;;1.20;99.90;;;;;;5017999;28;20413;-44
2023/01/19 03:21:07;;;;;;;8.93;5.93;;;1.20;99.90;;;;;;5035955;28;20266;-46
2023/01/19 03:23:35;;;;;;;6.67;4.87;;;1.30;99.90;;;;;;5036875;28;20436;-45
2023/01/19 03:26:04;;;;;;;7.03;4.63;;;1.30;99.90;;;;;;5040650;28;20417;-46
2023/01/19 03:28:31;;;;;;;10.63;5.20;;;1.30;99.90;;;;;;5025502;28;20418;-45
2023/01/19 03:31:12;;;;;;;7.93;5.10;;;1.30;99.90;;;;;;5035551;28;20935;-44
2023/01/19 03:33:41;;;;;;;9.80;5.77;;;1.40;99.90;;;;;;5035339;28;20536;-43
2023/01/19 03:36:15;;;;;;;12.20;5.30;;;1.40;99.90;;;;;;5035046;28;20932;-44
2023/01/19 03:38:42;;;;;;;10.70;6.37;;;1.40;99.90;;;;;;5035042;28;20399;-45
2023/01/19 03:41:14;;;;;;;11.03;5.37;;;1.40;99.90;;;;;;5017167;28;20820;-45
2023/01/19 03:43:41;;;;;;;6.10;3.63;;;1.50;99.90;;;;;;5035433;28;20447;-44
2023/01/19 03:46:09;;;;;;;11.87;6.17;;;1.50;99.90;;;;;;5035602;28;20914;-45
2023/01/19 03:48:36;;;;;;;9.97;5.40;;;1.50;99.90;;;;;;5017277;28;20421;-43
2023/01/19 03:51:04;;;;;;;11.30;6.20;;;1.50;99.90;;;;;;5034940;28;20418;-44
2023/01/19 03:53:30;;;;;;;12.17;6.63;;;1.50;99.90;;;;;;5034731;28;20443;-43
2023/01/19 03:55:56;;;;;;;11.63;6.23;;;1.50;99.90;;;;;;5034897;28;20443;-45
2023/01/19 03:58:21;;;;;;;10.50;5.70;;;1.60;99.90;;;;;;5034377;28;20257;-43
2023/01/19 04:00:47;;;;;;;11.87;5.97;;;1.60;99.90;;;;;;5034346;28;20179;-43
2023/01/19 04:03:14;;;;;;;13.23;7.23;;;1.60;99.90;;;;;;5034235;28;20203;-44
2023/01/19 04:05:40;;;;;;;13.70;6.23;;;1.60;99.90;;;;;;5034588;28;20186;-45
2023/01/19 04:08:06;;;;;;;10.50;5.60;;;1.60;99.90;;;;;;5034987;28;20502;-43
2023/01/19 04:10:32;;;;;;;15.47;6.60;;;1.70;99.90;;;;;;5034462;28;20720;-44
2023/01/19 04:12:59;;;;;;;12.93;6.27;;;1.70;99.90;;;;;;5016453;28;20446;-44
2023/01/19 04:15:25;;;;;;;9.03;4.90;;;1.70;99.90;;;;;;5034238;28;20736;-45
2023/01/19 04:17:51;;;;;;;8.17;4.63;;;1.70;99.90;;;;;;5034902;28;20422;-45
2023/01/19 04:20:16;;;;;;;15.40;5.43;;;1.70;99.90;;;;;;5034059;28;20457;-43
2023/01/19 04:22:42;;;;;;;20.57;6.37;;;1.80;99.90;;;;;;5034189;28;20365;-44
2023/01/19 04:25:08;;;;;;;7.10;4.77;;;1.80;99.90;;;;;;5033981;28;20278;-45
2023/01/19 04:27:35;;;;;;;9.80;5.20;;;1.80;99.90;;;;;;5033972;28;20194;-45
2023/01/19 04:30:02;;;;;;;8.10;4.23;;;1.90;99.90;;;;;;5034083;28;20569;-44
2023/01/19 04:32:29;;;;;;;7.83;4.87;;;1.90;99.90;;;;;;5034137;28;20445;-45
2023/01/19 04:34:55;;;;;;;13.97;6.83;;;1.90;99.90;;;;;;5034463;28;20238;-45
2023/01/19 04:37:21;;;;;;;13.47;5.43;;;1.90;99.90;;;;;;5034325;28;20180;-45
2023/01/19 04:39:46;;;;;;;8.90;5.57;;;1.90;99.90;;;;;;5033980;28;20187;-45
2023/01/19 04:42:12;;;;;;;12.30;6.57;;;1.90;99.90;;;;;;5034161;28;20339;-46
2023/01/19 04:44:38;;;;;;;6.10;3.13;;;1.90;99.90;;;;;;5016293;28;20192;-45
2023/01/19 04:47:04;;;;;;;12.63;7.77;;;1.90;99.90;;;;;;5034078;28;20555;-44
2023/01/19 04:49:29;;;;;;;15.87;7.30;;;1.90;99.90;;;;;;5034003;28;20656;-44
2023/01/19 04:51:55;;;;;;;9.07;5.43;;;1.90;99.90;;;;;;5016065;28;20218;-43
2023/01/19 04:54:21;;;;;;;13.53;6.03;;;1.80;99.90;;;;;;5033856;28;20211;-44
2023/01/19 04:56:46;;;;;;;8.40;4.67;;;1.80;99.90;;;;;;5034087;28;20530;-43
2023/01/19 04:59:12;;;;;;;15.27;6.87;;;1.80;99.90;;;;;;5033720;28;20191;-45
2023/01/19 05:01:38;;;;;;;11.97;6.13;;;1.80;99.90;;;;;;5033587;28;20196;-43
2023/01/19 05:04:05;;;;;;;15.17;6.60;;;1.70;99.90;;;;;;5033776;28;20501;-42
2023/01/19 05:06:32;;;;;;;14.43;7.50;;;1.70;99.90;;;;;;5015686;28;20303;-44
2023/01/19 05:08:57;;;;;;;15.50;7.73;;;1.70;99.90;;;;;;5015703;28;20238;-43
2023/01/19 05:11:23;;;;;;;7.83;5.03;;;1.70;99.90;;;;;;5033854;28;20184;-44
2023/01/19 05:13:48;;;;;;;21.70;8.73;;;1.70;99.90;;;;;;5033596;28;20180;-45
2023/01/19 05:16:14;;;;;;;12.80;7.03;;;1.60;99.90;;;;;;5015658;28;20219;-44
2023/01/19 05:18:39;;;;;;;12.20;7.33;;;1.60;99.90;;;;;;5033859;28;20203;-45
2023/01/19 05:21:06;;;;;;;4.80;3.13;;;1.50;99.90;;;;;;5034122;28;20203;-44
2023/01/19 05:23:32;;;;;;;14.33;7.63;;;1.50;99.90;;;;;;5015510;28;20214;-43
2023/01/19 05:26:02;;;;;;;12.97;7.40;;;1.40;99.90;;;;;;5033285;28;20183;-45
2023/01/19 05:28:29;;;;;;;11.40;6.73;;;1.30;99.90;;;;;;5033638;28;20647;-43
2023/01/19 05:30:54;;;;;;;15.63;7.97;;;1.30;99.90;;;;;;5033558;28;20660;-44
2023/01/19 05:33:21;;;;;;;14.13;8.03;;;1.30;99.90;;;;;;5033086;28;20522;-43
2023/01/19 05:35:53;;;;;;;8.60;5.53;;;1.20;99.90;;;;;;5033522;28;20204;-45
2023/01/19 05:38:20;;;;;;;9.20;6.50;;;1.20;99.90;;;;;;5033791;28;20181;-43
2023/01/19 05:40:46;;;;;;;7.00;4.27;;;1.10;99.90;;;;;;5015827;28;20185;-44
2023/01/19 05:43:13;;;;;;;10.17;6.50;;;1.10;99.90;;;;;;5015666;28;20566;-44
2023/01/19 05:45:39;;;;;;;13.70;8.27;;;1.10;99.90;;;;;;5033522;28;20180;-45
2023/01/19 05:48:06;;;;;;;10.90;6.33;;;1.10;99.90;;;;;;5033045;28;20295;-42
2023/01/19 05:50:33;;;;;;;11.67;4.90;;;1.00;99.90;;;;;;5033080;28;20555;-43
2023/01/19 05:52:59;;;;;;;15.47;7.63;;;1.10;99.90;;;;;;5033286;28;20234;-43
2023/01/19 05:55:24;;;;;;;13.77;8.47;;;1.00;99.90;;;;;;5032991;28;20454;-41
2023/01/19 05:57:50;;;;;;;14.77;8.53;;;1.00;99.90;;;;;;5033151;28;20238;-44
2023/01/19 06:00:30;;;;;;;12.77;8.43;;;1.00;99.90;;;;;;5035323;28;20193;-42
2023/01/19 06:02:55;;;;;;;11.60;6.80;;;1.00;99.90;;;;;;5019004;28;20287;-42
2023/01/19 06:05:21;;;;;;;13.50;8.60;;;1.00;99.90;;;;;;5036777;28;20226;-43
2023/01/19 06:07:46;;;;;;;12.30;7.63;;;1.00;99.90;;;;;;5036875;28;20195;-44
2023/01/19 06:10:12;;;;;;;13.20;8.00;;;1.00;99.90;;;;;;5036868;28;20188;-42
2023/01/19 06:12:41;;;;;;;11.93;7.27;;;1.00;99.90;;;;;;5036361;28;20291;-43
2023/01/19 06:15:07;;;;;;;13.23;7.37;;;1.00;99.90;;;;;;5036675;28;20286;-44
2023/01/19 06:17:32;;;;;;;10.87;6.60;;;1.00;99.90;;;;;;5036416;28;20175;-42
2023/01/19 06:19:58;;;;;;;10.73;5.77;;;1.00;99.90;;;;;;5036468;28;20179;-42
2023/01/19 06:22:24;;;;;;;16.17;7.50;;;1.00;99.90;;;;;;5036953;28;20223;-42
2023/01/19 06:24:49;;;;;;;8.60;5.30;;;0.90;99.90;;;;;;5036686;28;20184;-43
2023/01/19 06:27:15;;;;;;;8.80;5.83;;;0.90;99.90;;;;;;5036973;28;20176;-42
2023/01/19 06:29:41;;;;;;;14.70;9.43;;;1.00;99.90;;;;;;5035957;28;20198;-41
2023/01/19 06:32:06;;;;;;;12.70;7.70;;;1.00;99.90;;;;;;5036559;28;20211;-43
2023/01/19 06:34:32;;;;;;;10.90;6.30;;;1.00;99.90;;;;;;5036158;28;20783;-42
2023/01/19 06:36:57;;;;;;;16.93;7.73;;;1.00;99.90;;;;;;5018247;28;20290;-41
2023/01/19 06:39:23;;;;;;;11.77;7.20;;;1.00;99.90;;;;;;5036556;28;20271;-43
2023/01/19 06:41:50;;;;;;;12.93;7.47;;;1.00;99.90;;;;;;5018314;28;20702;-42
2023/01/19 06:44:15;;;;;;;12.50;7.70;;;1.00;99.90;;;;;;5035913;28;20688;-43
2023/01/19 06:46:41;;;;;;;13.00;7.23;;;1.00;99.90;;;;;;5035738;28;20223;-41
2023/01/19 06:49:07;;;;;;;9.03;5.77;;;1.00;99.90;;;;;;5035907;28;20193;-42
2023/01/19 06:51:32;;;;;;;7.07;4.47;;;1.00;99.90;;;;;;5035788;28;20218;-42
2023/01/19 06:53:58;;;;;;;15.57;8.73;;;1.00;99.90;;;;;;5035875;28;20552;-42
2023/01/19 06:56:24;;;;;;;12.40;7.67;;;1.00;99.90;;;;;;5035574;28;20188;-43
2023/01/19 06:58:51;;;;;;;12.63;7.23;;;1.00;99.90;;;;;;5035551;28;20259;-41
2023/01/19 07:01:17;;;;;;;13.90;7.43;;;1.00;99.90;;;;;;5035813;28;20199;-43
2023/01/19 07:03:44;;;;;;;10.43;6.90;;;1.00;99.90;;;;;;5035494;28;20294;-43
2023/01/19 07:06:09;;;;;;;7.33;4.60;;;1.00;99.90;;;;;;5035792;28;20168;-42
2023/01/19 07:08:36;;;;;;;9.67;5.37;;;1.00;99.90;;;;;;5035940;28;20199;-42
2023/01/19 07:11:05;;;;;;;12.67;7.70;;;1.00;99.90;;;;;;5034827;28;20208;-40
2023/01/19 07:13:36;;;;;;;15.20;8.63;;;1.00;99.90;;;;;;5034954;28;20217;-42
2023/01/19 07:16:09;;;;;;;10.60;6.53;;;1.00;99.90;;;;;;5035742;28;20230;-42
2023/01/19 07:18:36;;;;;;;11.63;7.13;;;1.00;99.90;;;;;;5035359;28;20186;-43
2023/01/19 07:21:04;;;;;;;6.27;4.20;;;1.00;99.90;;;;;;5017827;28;20184;-42
2023/01/19 07:23:30;;;;;;;12.33;7.53;;;1.00;99.90;;;;;;5035242;28;20200;-41
2023/01/19 07:25:57;;;;;;;8.50;5.37;;;1.10;99.90;;;;;;5035467;28;20227;-43
2023/01/19 07:28:23;;;;;;;13.67;8.37;;;1.10;99.90;;;;;;5017191;28;20596;-43
2023/01/19 07:30:53;;;;;;;8.03;5.37;;;1.10;99.90;;;;;;5017538;28;20612;-43
2023/01/19 07:33:21;;;;;;;12.70;8.27;;;1.10;99.90;;;;;;5035128;28;20212;-42
2023/01/19 07:35:48;;;;;;;14.07;9.20;;;1.10;99.90;;;;;;5034942;28;20204;-42
2023/01/19 07:38:14;;;;;;;14.00;8.27;;;1.10;99.90;;;;;;5017243;28;20234;-43
2023/01/19 07:40:39;;;;;;;9.80;4.77;;;1.10;99.90;;;;;;5035978;28;20180;-42
2023/01/19 07:43:05;;;;;;;13.87;7.97;;;1.10;99.90;;;;;;5034993;28;20196;-42
2023/01/19 07:45:30;;;;;;;8.20;5.77;;;1.10;99.90;;;;;;5035190;28;20191;-42
2023/01/19 07:47:56;;;;;;;13.70;8.30;;;1.10;99.90;;;;;;5035088;28;20192;-42
2023/01/19 07:50:24;;;;;;;10.10;6.80;;;1.20;99.90;;;;;;5035411;28;20200;-42
2023/01/19 07:52:52;;;;;;;9.07;6.07;;;1.20;99.90;;;;;;5034409;28;20243;-42
2023/01/19 07:55:19;;;;;;;15.27;8.53;;;1.20;99.90;;;;;;5034359;28;20207;-43
2023/01/19 07:57:46;;;;;;;12.07;6.83;;;1.20;99.90;;;;;;5034768;28;20207;-43
2023/01/19 08:00:13;;;;;;;15.20;9.00;;;1.20;99.90;;;;;;5034375;28;20241;-43
2023/01/19 08:02:39;;;;;;;9.90;6.33;;;1.20;99.90;;;;;;5034478;28;20203;-43
2023/01/19 08:05:05;;;;;;;11.37;7.03;;;1.20;99.90;;;;;;5016548;28;20198;-42
2023/01/19 08:07:32;;;;;;;13.50;8.03;;;1.20;99.90;;;;;;5034238;28;20564;-40
2023/01/19 08:09:58;;;;;;;16.33;8.87;;;1.20;99.90;;;;;;5034913;28;20207;-43
2023/01/19 08:12:24;;;;;;;14.10;7.03;;;1.20;99.90;;;;;;5034618;28;20246;-44
2023/01/19 08:14:49;;;;;;;12.30;7.57;;;1.20;99.90;;;;;;5034620;28;20209;-43
2023/01/19 08:17:15;;;;;;;16.47;9.13;;;1.30;99.90;;;;;;5034220;28;20607;-42
2023/01/19 08:19:42;;;;;;;19.07;11.13;;;1.30;99.90;;;;;;5034429;28;20219;-42
2023/01/19 08:22:07;;;;;;;15.23;9.40;;;1.30;99.90;;;;;;5034372;28;20204;-42
2023/01/19 08:24:33;;;;;;;22.53;10.30;;;1.30;99.90;;;;;;5034410;28;20188;-43
2023/01/19 08:27:00;;;;;;;14.53;7.87;;;1.30;99.90;;;;;;5016381;28;20271;-43
2023/01/19 08:29:25;;;;;;;21.53;11.87;;;1.30;99.90;;;;;;5034227;28;20180;-42
2023/01/19 08:31:54;;;;;;;19.63;12.13;;;1.40;99.90;;;;;;5034605;28;20219;-41
2023/01/19 08:34:20;;;;;;;17.53;8.33;;;1.40;99.90;;;;;;5033976;28;20199;-40
2023/01/19 08:36:46;;;;;;;11.60;6.97;;;1.40;99.90;;;;;;5034140;28;20176;-43
2023/01/19 08:39:12;;;;;;;17.87;10.87;;;1.40;99.90;;;;;;5034498;28;20250;-43
2023/01/19 08:41:37;;;;;;;22.50;11.00;;;1.40;99.90;;;;;;5034448;28;20558;-42
2023/01/19 08:44:03;;;;;;;18.10;9.77;;;1.40;99.90;;;;;;5034088;28;20648;-42
2023/01/19 08:46:28;;;;;;;25.47;12.20;;;1.40;99.90;;;;;;5033773;28;20181;-41
2023/01/19 08:48:54;;;;;;;14.47;6.47;;;1.50;99.90;;;;;;5033736;28;20176;-43
2023/01/19 08:51:20;;;;;;;19.57;9.37;;;1.50;99.90;;;;;;5033809;28;20302;-43
2023/01/19 08:53:45;;;;;;;20.90;11.27;;;1.50;99.90;;;;;;5033783;28;20184;-42
2023/01/19 08:56:12;;;;;;;22.83;13.20;;;1.50;99.90;;;;;;5033744;28;20270;-42
2023/01/19 08:58:47;;;;;;;23.73;12.67;;;1.60;99.90;;;;;;5034000;28;20577;-43
2023/01/19 09:01:13;;;;;;;21.70;11.77;;;1.60;99.90;;;;;;5033787;28;20177;-42
2023/01/19 09:03:39;;;;;;;14.37;7.80;;;1.60;99.90;;;;;;5033546;28;20171;-42
2023/01/19 09:06:06;;;;;;;24.03;11.37;;;1.70;99.90;;;;;;5015715;28;20280;-43
2023/01/19 09:08:32;;;;;;;16.53;7.10;;;1.70;99.90;;;;;;5033238;28;20648;-43
2023/01/19 09:10:57;;;;;;;21.73;13.17;;;1.70;99.90;;;;;;5033342;28;20190;-43
2023/01/19 09:13:23;;;;;;;24.27;12.27;;;1.80;99.90;;;;;;5033235;28;20726;-43
2023/01/19 09:15:49;;;;;;;25.63;12.80;;;1.80;99.90;;;;;;5033477;28;20235;-42
2023/01/19 09:18:17;;;;;;;26.77;12.67;;;1.80;99.90;;;;;;5033645;28;20184;-42
2023/01/19 09:20:44;;;;;;;26.40;13.87;;;1.80;99.90;;;;;;5033214;28;20185;-41
2023/01/19 09:23:12;;;;;;;23.37;12.57;;;1.80;99.90;;;;;;5016199;28;20205;-42
2023/01/19 09:25:39;;;;;;;27.50;13.73;;;1.80;99.90;;;;;;5035565;28;20758;-43
2023/01/19 09:28:06;;;;;;;17.57;9.53;;;1.80;99.90;;;;;;5034277;28;20547;-43
2023/01/19 09:30:32;;;;;;;23.40;12.07;;;1.80;99.90;;;;;;5015642;28;20613;-42
2023/01/19 09:33:06;;;;;;;19.77;10.93;;;1.80;99.90;;;;;;5015969;28;20208;-42
2023/01/19 09:35:38;;;;;;;24.97;12.73;;;1.80;99.90;;;;;;5018220;28;20196;-49
2023/01/19 09:38:09;;;;;;;24.37;11.97;;;1.80;99.90;;;;;;5037832;28;20230;-47
2023/01/19 09:40:53;;;;;;;20.60;10.13;;;1.80;99.90;;;;;;5038029;28;20161;-46
2023/01/19 09:43:44;;;;;;;23.80;9.07;;;1.80;99.90;;;;;;5037902;28;20206;-46
2023/01/19 09:46:27;;;;;;;21.83;10.73;;;1.80;99.90;;;;;;5019725;28;20180;-42
2023/01/19 09:48:57;;;;;;;27.27;13.17;;;1.80;99.90;;;;;;5037787;28;20183;-46
2023/01/19 09:51:26;;;;;;;20.27;11.17;;;1.90;99.90;;;;;;5037938;28;20216;-46
2023/01/19 09:54:03;;;;;;;26.73;12.20;;;1.90;99.90;;;;;;5037040;28;20652;-46
2023/01/19 09:56:30;;;;;;;24.73;12.17;;;1.90;99.90;;;;;;5036916;28;20172;-46
2023/01/19 09:58:56;;;;;;;23.83;13.00;;;1.90;99.90;;;;;;5037156;28;20183;-48
2023/01/19 10:01:59;;;;;;;11.00;5.07;;;2.00;99.90;;;;;;5036844;28;20183;-47
2023/01/19 10:04:38;;;;;;;21.97;12.03;;;1.90;99.90;;;;;;5019180;28;20595;-46
2023/01/19 10:07:28;;;;;;;21.47;11.23;;;1.90;99.90;;;;;;5037019;28;20214;-46
2023/01/19 10:10:11;;;;;;;26.87;12.23;;;2.00;99.90;;;;;;5019375;28;20169;-48
2023/01/19 10:13:12;;;;;;;20.83;11.80;;;2.00;99.90;;;;;;5036739;28;20671;-47
2023/01/19 10:16:04;;;;;;;21.37;10.50;;;2.00;99.90;;;;;;4985525;28;20309;-45
2023/01/19 10:18:44;;;;;;;29.47;12.63;;;2.10;99.90;;;;;;5036691;28;20166;-46
2023/01/19 10:21:16;;;;;;;20.60;9.73;;;2.10;99.90;;;;;;5036962;28;20192;-46
2023/01/19 10:23:57;;;;;;;25.73;11.27;;;2.20;99.90;;;;;;5019097;28;20651;-46
2023/01/19 10:26:25;;;;;;;23.47;12.20;;;2.30;99.90;;;;;;5018741;28;20219;-46
2023/01/19 10:28:56;;;;;;;17.17;8.73;;;2.30;99.90;;;;;;5036786;28;20200;-46
2023/01/19 10:31:23;;;;;;;19.17;11.27;;;2.30;99.90;;;;;;5036569;28;20188;-46
2023/01/19 10:33:50;;;;;;;21.47;10.93;;;2.40;99.90;;;;;;5036508;28;20188;-45
2023/01/19 10:36:36;;;;;;;22.77;11.23;;;2.40;99.90;;;;;;5036377;28;20259;-46
2023/01/19 10:39:06;;;;;;;23.70;9.90;;;2.40;99.90;;;;;;5036546;28;20176;-45
2023/01/19 10:41:52;;;;;;;21.60;11.87;;;2.40;99.90;;;;;;5036583;28;20184;-47
2023/01/19 10:44:26;;;;;;;23.30;11.40;;;2.50;99.90;;;;;;5036747;28;20180;-45
2023/01/19 10:46:55;;;;;;;30.97;13.43;;;2.50;99.90;;;;;;5035818;28;20180;-45
2023/01/19 10:49:35;;;;;;;23.23;11.57;;;2.60;99.90;;;;;;5037735;28;20176;-45
2023/01/19 10:52:02;;;;;;;25.93;10.47;;;2.60;99.90;;;;;;5037808;28;20226;-45
2023/01/19 10:54:30;;;;;;;23.40;10.50;;;2.60;99.90;;;;;;5038580;28;20231;-46
2023/01/19 10:57:02;;;;;;;24.70;10.77;;;2.60;99.90;;;;;;5038710;28;20264;-41
2023/01/19 10:59:35;;;;;;;24.63;13.43;;;2.60;99.90;;;;;;5035509;28;20675;-40
2023/01/19 11:02:17;;;;;;;31.17;11.17;;;2.60;99.90;;;;;;5035811;28;20192;-41
2023/01/19 11:04:44;;;;;;;22.27;12.80;;;2.60;99.90;;;;;;5035651;28;20247;-41
2023/01/19 11:07:25;;;;;;;33.30;13.33;;;2.60;99.90;;;;;;5035715;28;20585;-43
2023/01/19 11:10:20;;;;;;;30.33;13.83;;;2.70;99.90;;;;;;5035814;28;20256;-42
2023/01/19 11:13:02;;;;;;;22.73;11.73;;;2.70;99.90;;;;;;5036264;28;20201;-42
2023/01/19 11:15:34;;;;;;;23.47;11.17;;;2.80;99.90;;;;;;5036033;28;20197;-41
2023/01/19 11:18:02;;;;;;;30.40;13.23;;;2.80;99.90;;;;;;5035490;28;20161;-41
2023/01/19 11:20:52;;;;;;;29.30;12.83;;;2.90;99.90;;;;;;5035780;28;20170;-41
2023/01/19 11:23:26;;;;;;;26.70;11.23;;;2.90;99.90;;;;;;5027822;28;20215;-41
2023/01/19 11:25:53;;;;;;;25.20;12.10;;;2.90;99.90;;;;;;5017697;28;20525;-42
2023/01/19 11:28:42;;;;;;;23.17;12.40;;;2.90;99.90;;;;;;5035323;28;20215;-43
2023/01/19 11:31:13;;;;;;;22.87;12.27;;;2.90;99.90;;;;;;5017275;28;20231;-42
2023/01/19 11:33:42;;;;;;;27.37;12.37;;;2.90;99.90;;;;;;5034972;28;20196;-41
2023/01/19 11:36:28;;;;;;;27.30;13.70;;;2.90;99.90;;;;;;5035366;28;20205;-42
2023/01/19 11:38:56;;;;;;;32.80;15.10;;;2.90;99.90;;;;;;5035562;28;20197;-41
2023/01/19 11:41:27;;;;;;;29.77;14.40;;;2.80;99.90;;;;;;5034955;28;20564;-43
2023/01/19 11:43:58;;;;;;;26.03;14.33;;;2.80;99.90;;;;;;5035102;28;20164;-41
2023/01/19 11:46:31;;;;;;;28.47;15.43;;;2.80;99.90;;;;;;5034903;28;20171;-41
2023/01/19 11:49:23;;;;;;;29.40;13.43;;;2.80;99.90;;;;;;5035083;28;20173;-40
2023/01/19 11:51:57;;;;;;;26.07;13.70;;;2.80;99.90;;;;;;5017428;28;20204;-41
2023/01/19 11:54:28;;;;;;;27.17;13.47;;;2.80;99.90;;;;;;5034543;28;20176;-41
2023/01/19 11:56:57;;;;;;;32.77;15.27;;;2.80;99.90;;;;;;5034589;28;20161;-41
2023/01/19 11:59:25;;;;;;;28.60;14.63;;;2.80;99.90;;;;;;5034080;28;20648;-41
2023/01/19 12:01:56;;;;;;;28.90;14.80;;;2.80;99.90;;;;;;5034752;28;20205;-40
2023/01/19 12:04:29;;;;;;;34.53;14.40;;;2.80;99.90;;;;;;5034924;28;20169;-40
2023/01/19 12:06:57;;;;;;;25.50;14.83;;;2.80;99.90;;;;;;5034508;28;20165;-41
2023/01/19 12:09:27;;;;;;;34.00;15.53;;;2.80;99.90;;;;;;5034638;28;20185;-46
2023/01/19 12:12:05;;;;;;;24.90;14.40;;;2.90;99.90;;;;;;5034435;28;20197;-47
2023/01/19 12:14:33;;;;;;;30.00;14.20;;;2.90;99.90;;;;;;5034140;28;20192;-47
2023/01/19 12:17:01;;;;;;;26.63;12.03;;;2.90;99.90;;;;;;5034490;28;20176;-44
2023/01/19 12:19:44;;;;;;;28.20;13.63;;;2.90;99.90;;;;;;5034098;28;20233;-44
2023/01/19 12:22:15;;;;;;;24.27;13.97;;;2.90;99.90;;;;;;5034184;28;20568;-46
2023/01/19 12:24:53;;;;;;;32.17;15.03;;;2.90;99.90;;;;;;5034212;28;20199;-46
2023/01/19 12:27:42;;;;;;;23.73;11.73;;;3.00;99.90;;;;;;5034598;28;20234;-46
2023/01/19 12:30:25;;;;;;;33.73;14.90;;;3.10;99.90;;;;;;5035070;28;20676;-44
2023/01/19 12:33:11;;;;;;;25.70;14.40;;;3.20;99.90;;;;;;5035868;28;20205;-45
2023/01/19 12:36:10;;;;;;;23.27;13.70;;;3.20;99.90;;;;;;5034874;28;20208;-45
2023/01/19 12:38:51;;;;;;;24.90;12.40;;;3.30;99.90;;;;;;5034330;28;20256;-45
2023/01/19 12:41:19;;;;;;;31.53;13.53;;;3.40;99.90;;;;;;5034272;28;20173;-44
2023/01/19 12:44:05;;;;;;;23.77;12.27;;;3.40;99.90;;;;;;5033936;28;20183;-45
2023/01/19 12:46:30;;;;;;;27.13;14.97;;;3.30;99.90;;;;;;5034147;28;20169;-45
2023/01/19 12:49:16;;;;;;;28.53;13.13;;;3.30;99.90;;;;;;5034188;28;20243;-45
2023/01/19 12:51:42;;;;;;;27.43;14.47;;;3.30;99.90;;;;;;5034043;28;20549;-46
2023/01/19 12:54:17;;;;;;;22.43;11.87;;;3.20;99.90;;;;;;5034136;28;20193;-44
2023/01/19 12:56:43;;;;;;;25.43;14.30;;;3.20;99.90;;;;;;5034201;28;20173;-46
2023/01/19 12:59:24;;;;;;;27.20;13.77;;;3.20;99.90;;;;;;5033834;28;20667;-46
2023/01/19 13:02:17;;;;;;;15.87;9.40;;;3.20;99.90;;;;;;5033692;28;20214;-45
2023/01/19 13:05:08;;;;;;;21.17;11.70;;;3.20;99.90;;;;;;5033516;28;20188;-46
2023/01/19 13:08:01;;;;;;;24.20;12.77;;;3.20;99.90;;;;;;5033683;28;20691;-46